Time;durP1;ratioP1;P1;durP2;ratioP2;P2;SDS_P1;SDS_P2;PMS_P1;PMS_P2;Temp;Humidity;BMP_temperature;BMP_pressure;BME280_temperature;BME280_humidity;BME280_pressure;Samples;Min_cycle;Max_cycle;Signal;HPM_P1;HPM_P2
2023/08/31 00:02:10;;;;;;;19.90;16.03;;;14.90;1.00;;;;;;5052795;28;20429;-65
2023/08/31 00:04:36;;;;;;;20.20;16.77;;;14.90;1.00;;;;;;5054023;28;20435;-64
2023/08/31 00:07:02;;;;;;;20.70;17.47;;;14.90;1.00;;;;;;5053325;28;20233;-67
2023/08/31 00:09:29;;;;;;;21.50;18.27;;;14.90;1.00;;;;;;5055378;28;20405;-68
2023/08/31 00:11:56;;;;;;;23.27;17.87;;;14.90;1.00;;;;;;5045068;28;21000;-67
2023/08/31 00:14:22;;;;;;;18.30;15.20;;;14.90;1.00;;;;;;5035513;28;20449;-68
2023/08/31 00:16:49;;;;;;;20.50;15.97;;;14.90;1.00;;;;;;5039058;28;20441;-72
2023/08/31 00:19:15;;;;;;;21.00;17.27;;;14.90;1.00;;;;;;5042943;28;20454;-71
2023/08/31 00:21:42;;;;;;;21.53;17.47;;;14.80;1.00;;;;;;5034271;28;20402;-65
2023/08/31 00:24:09;;;;;;;18.70;15.47;;;14.80;1.00;;;;;;5035223;28;20421;-64
2023/08/31 00:26:40;;;;;;;18.97;15.73;;;14.80;1.00;;;;;;5034270;28;20493;-64
2023/08/31 00:29:06;;;;;;;18.30;15.23;;;14.80;1.00;;;;;;5041676;28;20924;-65
2023/08/31 00:31:33;;;;;;;20.37;17.20;;;14.80;1.00;;;;;;5036389;28;21163;-71
2023/08/31 00:34:03;;;;;;;19.60;17.20;;;14.80;1.00;;;;;;5048020;28;20446;-71
2023/08/31 00:36:33;;;;;;;21.57;16.77;;;14.70;1.00;;;;;;5034106;28;20915;-65
2023/08/31 00:39:08;;;;;;;20.80;17.00;;;14.70;1.00;;;;;;5038588;28;20467;-72
2023/08/31 00:41:35;;;;;;;20.40;16.17;;;14.70;1.00;;;;;;5054927;28;20401;-68
2023/08/31 00:44:04;;;;;;;19.60;16.73;;;14.70;1.00;;;;;;5054715;28;20405;-72
2023/08/31 00:46:31;;;;;;;20.23;15.63;;;14.70;1.00;;;;;;5053092;28;20163;-71
2023/08/31 00:48:57;;;;;;;19.47;16.50;;;14.70;1.00;;;;;;5033773;28;20988;-69
2023/08/31 00:51:24;;;;;;;20.30;17.93;;;14.70;1.00;;;;;;5034610;28;20422;-65
2023/08/31 00:53:53;;;;;;;21.60;16.83;;;14.70;1.00;;;;;;5034582;28;20399;-71
2023/08/31 00:56:19;;;;;;;19.53;16.03;;;14.60;1.00;;;;;;5033299;28;20406;-72
2023/08/31 00:58:46;;;;;;;20.60;17.07;;;14.60;1.00;;;;;;5051992;28;20457;-65
2023/08/31 01:01:17;;;;;;;20.67;16.27;;;14.50;1.00;;;;;;5054551;28;20249;-65
2023/08/31 01:04:17;;;;;;;24.60;16.20;;;14.50;1.00;;;;;;5052947;28;20483;-65
2023/08/31 01:07:04;;;;;;;22.17;16.70;;;14.50;1.00;;;;;;5033627;28;20476;-66
2023/08/31 01:09:45;;;;;;;22.50;16.73;;;14.50;1.00;;;;;;5034007;28;20480;-71
2023/08/31 01:12:40;;;;;;;23.63;17.00;;;14.50;1.00;;;;;;5033971;28;20402;-72
2023/08/31 01:15:10;;;;;;;20.47;16.70;;;14.40;1.00;;;;;;5032934;28;20547;-70
2023/08/31 01:18:03;;;;;;;19.30;16.57;;;14.40;1.00;;;;;;5034072;28;20450;-64
2023/08/31 01:20:58;;;;;;;17.73;15.07;;;14.40;1.00;;;;;;5033807;28;20425;-72
2023/08/31 01:23:34;;;;;;;20.67;15.60;;;14.50;1.00;;;;;;5033677;28;20433;-68
2023/08/31 01:26:00;;;;;;;23.87;17.13;;;14.50;1.00;;;;;;5046375;28;20433;-72
2023/08/31 01:28:26;;;;;;;20.90;15.93;;;14.40;1.00;;;;;;5053456;28;20425;-72
2023/08/31 01:30:52;;;;;;;18.20;14.40;;;14.50;1.00;;;;;;5053776;28;20171;-71
2023/08/31 01:33:17;;;;;;;18.53;15.27;;;14.40;1.00;;;;;;5050935;28;20775;-65
2023/08/31 01:35:52;;;;;;;17.33;14.23;;;14.40;1.00;;;;;;5052889;28;20284;-66
2023/08/31 01:38:25;;;;;;;20.17;14.83;;;14.40;1.00;;;;;;5053689;28;20186;-65
2023/08/31 01:40:57;;;;;;;18.53;14.93;;;14.40;1.00;;;;;;5051101;28;20413;-72
2023/08/31 01:43:23;;;;;;;21.17;12.57;;;14.40;1.00;;;;;;5032513;28;20497;-72
2023/08/31 01:45:50;;;;;;;17.00;13.37;;;14.40;1.00;;;;;;5032686;28;20411;-65
2023/08/31 01:48:16;;;;;;;19.33;12.67;;;14.40;1.00;;;;;;5038293;28;20461;-72
2023/08/31 01:50:42;;;;;;;14.37;12.70;;;14.40;1.00;;;;;;5053483;28;20433;-64
2023/08/31 01:53:08;;;;;;;17.60;13.10;;;14.40;1.00;;;;;;5053611;28;20632;-69
2023/08/31 01:55:33;;;;;;;16.90;12.13;;;14.40;1.00;;;;;;5052670;28;20264;-72
2023/08/31 01:58:00;;;;;;;14.47;11.70;;;14.40;1.00;;;;;;5047513;28;20950;-64
2023/08/31 02:00:26;;;;;;;16.03;11.60;;;14.40;1.00;;;;;;5033195;28;20178;-72
2023/08/31 02:02:52;;;;;;;13.70;11.70;;;14.30;1.00;;;;;;5033397;28;20402;-64
2023/08/31 02:05:17;;;;;;;12.97;11.53;;;14.40;1.00;;;;;;5046776;28;20484;-72
2023/08/31 02:07:43;;;;;;;21.23;13.60;;;14.40;1.00;;;;;;5032778;28;20771;-67
2023/08/31 02:10:09;;;;;;;14.73;12.33;;;14.30;1.00;;;;;;5033437;28;20179;-68
2023/08/31 02:12:36;;;;;;;14.67;11.83;;;14.30;1.00;;;;;;5037312;28;20835;-68
2023/08/31 02:15:04;;;;;;;14.03;12.17;;;14.30;1.00;;;;;;5052432;28;20245;-69
2023/08/31 02:17:30;;;;;;;14.30;12.83;;;14.30;1.00;;;;;;5053133;28;20516;-69
2023/08/31 02:19:55;;;;;;;14.50;11.30;;;14.30;1.00;;;;;;5036098;28;20560;-66
2023/08/31 02:22:21;;;;;;;13.80;11.50;;;14.30;1.00;;;;;;5033285;28;20637;-72
2023/08/31 02:24:47;;;;;;;17.10;12.80;;;14.30;1.00;;;;;;5032515;28;20168;-65
2023/08/31 02:27:12;;;;;;;13.90;12.40;;;14.30;1.00;;;;;;5030887;28;20180;-72
2023/08/31 02:29:38;;;;;;;13.23;11.47;;;14.30;1.00;;;;;;5032485;28;20325;-65
2023/08/31 02:32:04;;;;;;;16.50;13.27;;;14.30;1.00;;;;;;5032131;28;20183;-71
2023/08/31 02:34:30;;;;;;;14.60;11.80;;;14.30;1.00;;;;;;5034703;28;20202;-66
2023/08/31 02:36:56;;;;;;;15.30;12.37;;;14.20;1.00;;;;;;5036993;28;20426;-72
2023/08/31 02:39:23;;;;;;;15.90;11.90;;;14.20;1.00;;;;;;5032015;28;20711;-72
2023/08/31 02:41:49;;;;;;;15.33;11.70;;;14.20;1.00;;;;;;5032706;28;20521;-72
2023/08/31 02:44:14;;;;;;;17.20;11.97;;;14.20;1.00;;;;;;5032602;28;20410;-72
2023/08/31 02:46:40;;;;;;;14.70;12.37;;;14.10;1.00;;;;;;5043025;28;20710;-66
2023/08/31 02:49:06;;;;;;;17.10;11.93;;;14.10;1.00;;;;;;5051107;28;20226;-67
2023/08/31 02:51:31;;;;;;;16.20;12.53;;;14.10;1.00;;;;;;5052804;28;20694;-64
2023/08/31 02:53:57;;;;;;;13.97;11.80;;;14.10;1.00;;;;;;5052455;28;20182;-72
2023/08/31 02:56:23;;;;;;;15.80;11.80;;;14.10;1.00;;;;;;5041658;28;20644;-65
2023/08/31 02:58:48;;;;;;;17.07;13.23;;;14.10;1.00;;;;;;5032662;28;20203;-65
2023/08/31 03:01:14;;;;;;;15.33;12.10;;;14.10;1.00;;;;;;5032091;28;20609;-72
2023/08/31 03:03:41;;;;;;;17.60;13.13;;;14.10;1.00;;;;;;5032876;28;20171;-72
2023/08/31 03:06:08;;;;;;;16.80;12.10;;;14.10;1.00;;;;;;5050468;28;20198;-65
2023/08/31 03:08:34;;;;;;;18.40;13.07;;;14.10;1.00;;;;;;5052564;28;20425;-65
2023/08/31 03:11:00;;;;;;;21.07;12.63;;;14.10;1.00;;;;;;5053645;28;20404;-65
2023/08/31 03:13:25;;;;;;;19.43;14.10;;;14.10;1.00;;;;;;5056529;28;20404;-67
2023/08/31 03:15:51;;;;;;;16.77;13.30;;;14.10;1.00;;;;;;5054696;28;20203;-73
2023/08/31 03:18:17;;;;;;;14.90;13.33;;;14.10;1.00;;;;;;5054858;28;20667;-64
2023/08/31 03:20:42;;;;;;;17.90;13.20;;;14.10;1.00;;;;;;5055821;28;20167;-65
2023/08/31 03:23:09;;;;;;;18.53;14.03;;;14.10;1.00;;;;;;5056086;28;20213;-65
2023/08/31 03:25:35;;;;;;;15.97;13.27;;;14.10;1.00;;;;;;5054018;28;20221;-66
2023/08/31 03:28:01;;;;;;;17.17;13.37;;;14.00;1.00;;;;;;5056135;28;20429;-72
2023/08/31 03:30:26;;;;;;;17.30;13.03;;;14.00;1.00;;;;;;5055233;28;20578;-73
2023/08/31 03:32:52;;;;;;;18.47;14.57;;;14.00;1.00;;;;;;5056351;28;20185;-70
2023/08/31 03:35:18;;;;;;;23.23;14.23;;;14.10;1.00;;;;;;5035058;28;20215;-72
2023/08/31 03:37:47;;;;;;;16.37;12.87;;;14.10;1.00;;;;;;5036250;28;20183;-72
2023/08/31 03:40:13;;;;;;;17.00;13.40;;;14.10;1.00;;;;;;5035663;28;20250;-64
2023/08/31 03:42:39;;;;;;;22.83;15.20;;;14.10;1.00;;;;;;5043743;28;20512;-73
2023/08/31 03:45:05;;;;;;;18.03;13.60;;;14.10;1.00;;;;;;5041895;28;20259;-72
2023/08/31 03:47:31;;;;;;;21.40;14.40;;;14.00;1.00;;;;;;5035931;28;20187;-65
2023/08/31 03:49:56;;;;;;;19.93;13.20;;;14.00;1.00;;;;;;5048242;28;20468;-73
2023/08/31 03:52:23;;;;;;;20.90;14.00;;;14.00;1.00;;;;;;5055996;28;20257;-73
2023/08/31 03:54:49;;;;;;;16.70;12.10;;;14.00;1.00;;;;;;5055693;28;20198;-73
2023/08/31 03:57:15;;;;;;;17.23;11.87;;;13.90;1.00;;;;;;5054398;28;20393;-73
2023/08/31 03:59:40;;;;;;;13.73;11.57;;;13.90;1.00;;;;;;5053431;28;20437;-66
2023/08/31 04:02:06;;;;;;;16.77;12.77;;;13.90;1.00;;;;;;5054628;28;20205;-65
2023/08/31 04:04:32;;;;;;;19.53;13.23;;;13.90;1.00;;;;;;5054073;28;20194;-66
2023/08/31 04:06:58;;;;;;;19.20;12.20;;;13.90;1.00;;;;;;5054725;28;20236;-68
2023/08/31 04:09:24;;;;;;;13.33;11.27;;;13.90;1.00;;;;;;5046825;28;20183;-72
2023/08/31 04:11:50;;;;;;;17.50;12.00;;;13.80;1.00;;;;;;5035369;28;20917;-68
2023/08/31 04:14:16;;;;;;;13.70;11.23;;;13.80;1.00;;;;;;5035342;28;20202;-72
2023/08/31 04:16:42;;;;;;;16.20;11.90;;;13.80;1.00;;;;;;5034248;28;20221;-65
2023/08/31 04:19:08;;;;;;;16.53;12.13;;;13.80;1.00;;;;;;5037429;28;20955;-66
2023/08/31 04:21:33;;;;;;;17.33;11.87;;;13.80;1.00;;;;;;5034967;28;20233;-73
2023/08/31 04:24:00;;;;;;;15.03;10.33;;;13.80;1.00;;;;;;5035220;28;20532;-65
2023/08/31 04:26:26;;;;;;;15.17;12.47;;;13.80;1.00;;;;;;5034431;28;20179;-65
2023/08/31 04:28:51;;;;;;;14.00;11.30;;;13.80;1.00;;;;;;5035161;28;20427;-73
2023/08/31 04:31:17;;;;;;;15.13;10.57;;;13.70;1.00;;;;;;5051657;28;20193;-68
2023/08/31 04:33:43;;;;;;;12.70;10.00;;;13.70;1.00;;;;;;5054668;28;20175;-69
2023/08/31 04:36:09;;;;;;;15.23;10.87;;;13.70;1.00;;;;;;5033721;28;20283;-64
2023/08/31 04:38:34;;;;;;;11.13;9.07;;;13.60;1.00;;;;;;5034939;28;20975;-72
2023/08/31 04:41:01;;;;;;;13.83;11.40;;;13.60;1.00;;;;;;5033772;28;20195;-65
2023/08/31 04:43:27;;;;;;;11.60;9.70;;;13.60;1.00;;;;;;5034958;28;20637;-73
2023/08/31 04:45:53;;;;;;;13.63;10.83;;;13.60;1.00;;;;;;5044467;28;20929;-73
2023/08/31 04:48:19;;;;;;;13.23;9.93;;;13.60;1.00;;;;;;5054830;28;20440;-73
2023/08/31 04:50:45;;;;;;;13.13;10.03;;;13.60;1.00;;;;;;5052709;28;20449;-72
2023/08/31 04:53:11;;;;;;;18.97;11.27;;;13.60;1.00;;;;;;5054374;28;20650;-74
2023/08/31 04:55:37;;;;;;;13.80;10.40;;;13.60;1.00;;;;;;5039426;28;20264;-68
2023/08/31 04:58:03;;;;;;;15.30;10.30;;;13.60;1.00;;;;;;5034046;28;20186;-73
2023/08/31 05:00:29;;;;;;;11.50;9.47;;;13.60;1.00;;;;;;5033495;28;20422;-73
2023/08/31 05:02:56;;;;;;;11.10;9.53;;;13.60;1.00;;;;;;5034691;28;20883;-70
2023/08/31 05:05:21;;;;;;;13.27;9.27;;;13.60;1.00;;;;;;5040177;28;20437;-72
2023/08/31 05:07:47;;;;;;;13.20;9.60;;;13.60;1.00;;;;;;5054188;28;20506;-65
2023/08/31 05:10:13;;;;;;;11.77;10.00;;;13.60;1.00;;;;;;5036208;28;20198;-65
2023/08/31 05:12:39;;;;;;;13.20;8.40;;;13.50;1.00;;;;;;5033834;28;20186;-65
2023/08/31 05:15:05;;;;;;;11.40;9.37;;;13.50;1.00;;;;;;5033377;28;20460;-67
2023/08/31 05:17:31;;;;;;;12.40;10.50;;;13.40;1.00;;;;;;5034323;28;20215;-64
2023/08/31 05:19:57;;;;;;;13.23;9.53;;;13.40;1.00;;;;;;5046754;28;20468;-73
2023/08/31 05:22:23;;;;;;;9.73;8.73;;;13.40;1.00;;;;;;5054045;28;20405;-68
2023/08/31 05:24:49;;;;;;;13.53;9.77;;;13.40;1.00;;;;;;5052868;28;20179;-73
2023/08/31 05:27:15;;;;;;;9.90;8.17;;;13.30;1.00;;;;;;5051914;28;20175;-67
2023/08/31 05:29:40;;;;;;;13.47;9.60;;;13.30;1.00;;;;;;5052538;28;20440;-69
2023/08/31 05:32:06;;;;;;;13.60;9.37;;;13.20;1.00;;;;;;5053251;28;20416;-70
2023/08/31 05:34:37;;;;;;;13.37;10.17;;;13.20;1.00;;;;;;5051704;28;20195;-72
2023/08/31 05:37:04;;;;;;;17.57;9.90;;;13.20;1.00;;;;;;5052800;28;20414;-71
2023/08/31 05:39:30;;;;;;;13.50;9.30;;;13.20;1.00;;;;;;5052885;28;20448;-66
2023/08/31 05:41:56;;;;;;;10.33;9.27;;;13.10;1.00;;;;;;5053757;28;20890;-70
2023/08/31 05:44:22;;;;;;;18.03;9.07;;;13.10;1.00;;;;;;5053421;28;20179;-69
2023/08/31 05:46:48;;;;;;;12.80;8.50;;;13.10;1.00;;;;;;5049942;28;20430;-65
2023/08/31 05:49:14;;;;;;;11.57;9.10;;;13.10;1.00;;;;;;5035351;28;20457;-65
2023/08/31 05:51:39;;;;;;;15.40;9.20;;;13.10;1.00;;;;;;5041862;28;20187;-73
2023/08/31 05:54:10;;;;;;;12.63;8.83;;;13.10;1.00;;;;;;5039635;28;20245;-72
2023/08/31 05:56:36;;;;;;;11.00;7.70;;;13.10;1.00;;;;;;5035742;28;20175;-74
2023/08/31 05:59:02;;;;;;;10.63;9.50;;;13.10;1.00;;;;;;5036569;28;20786;-73
2023/08/31 06:01:27;;;;;;;11.47;7.97;;;13.10;1.00;;;;;;5033555;28;20425;-66
2023/08/31 06:03:53;;;;;;;10.53;6.90;;;13.10;1.00;;;;;;5032799;28;20402;-65
2023/08/31 06:06:19;;;;;;;10.30;7.77;;;13.10;1.00;;;;;;5046930;28;20180;-74
2023/08/31 06:08:45;;;;;;;14.53;8.50;;;13.10;1.00;;;;;;5033226;28;20679;-74
2023/08/31 06:11:10;;;;;;;8.73;7.00;;;13.10;1.00;;;;;;5032033;28;20263;-65
2023/08/31 06:13:37;;;;;;;8.90;7.40;;;13.00;1.00;;;;;;5033411;28;20167;-72
2023/08/31 06:16:03;;;;;;;11.37;7.07;;;13.00;1.00;;;;;;5049222;28;20203;-66
2023/08/31 06:18:29;;;;;;;8.40;6.87;;;13.00;1.00;;;;;;5051630;28;20486;-74
2023/08/31 06:20:54;;;;;;;9.53;6.37;;;13.10;1.00;;;;;;5045139;28;20629;-66
2023/08/31 06:23:20;;;;;;;12.03;7.23;;;13.10;1.00;;;;;;5030840;28;20175;-65
2023/08/31 06:25:46;;;;;;;7.17;5.70;;;13.10;1.00;;;;;;5034319;28;20175;-68
2023/08/31 06:28:12;;;;;;;9.17;6.13;;;13.10;1.00;;;;;;5031843;28;20199;-73
2023/08/31 06:30:38;;;;;;;8.97;6.10;;;13.20;1.00;;;;;;5032936;28;20183;-70
2023/08/31 06:33:04;;;;;;;13.10;7.30;;;13.30;1.00;;;;;;5033015;28;20433;-67
2023/08/31 06:35:31;;;;;;;9.80;5.50;;;13.30;1.00;;;;;;5045834;28;20465;-65
2023/08/31 06:37:57;;;;;;;6.50;5.47;;;13.40;1.00;;;;;;5039296;28;20540;-69
2023/08/31 06:40:24;;;;;;;8.90;4.97;;;13.30;1.00;;;;;;5032301;28;20402;-67
2023/08/31 06:42:49;;;;;;;12.30;4.80;;;13.40;1.00;;;;;;5031580;28;20445;-65
2023/08/31 06:45:15;;;;;;;10.03;5.23;;;13.40;1.00;;;;;;5043003;28;20511;-75
2023/08/31 06:47:41;;;;;;;5.53;5.03;;;13.40;1.00;;;;;;5056951;28;20273;-74
2023/08/31 06:50:07;;;;;;;7.57;4.57;;;13.40;1.00;;;;;;5055340;28;20197;-76
2023/08/31 06:52:33;;;;;;;9.33;4.70;;;13.50;1.00;;;;;;5056948;28;20229;-74
2023/08/31 06:54:59;;;;;;;7.47;4.80;;;13.50;1.00;;;;;;5055659;28;20230;-75
2023/08/31 06:57:27;;;;;;;6.27;5.10;;;13.60;1.00;;;;;;5055913;28;20491;-73
2023/08/31 06:59:53;;;;;;;5.60;4.30;;;13.60;1.00;;;;;;5056523;28;20574;-66
2023/08/31 07:02:19;;;;;;;8.23;4.93;;;13.70;1.00;;;;;;5056707;28;20405;-74
2023/08/31 07:04:46;;;;;;;4.77;4.33;;;13.80;1.00;;;;;;5048091;28;20513;-71
2023/08/31 07:07:13;;;;;;;10.23;4.60;;;13.90;1.00;;;;;;5035739;28;20806;-67
2023/08/31 07:09:41;;;;;;;4.90;3.90;;;13.90;1.00;;;;;;5036876;28;20892;-74
2023/08/31 07:12:07;;;;;;;5.53;4.43;;;14.00;1.00;;;;;;5036658;28;20464;-70
2023/08/31 07:14:33;;;;;;;6.97;3.90;;;14.00;1.00;;;;;;5041757;28;20457;-65
2023/08/31 07:16:59;;;;;;;11.50;4.27;;;14.00;1.00;;;;;;5055308;28;20167;-74
2023/08/31 07:19:26;;;;;;;5.13;3.10;;;14.00;1.00;;;;;;5051212;28;21256;-65
2023/08/31 07:21:54;;;;;;;4.00;3.70;;;14.00;1.00;;;;;;5036411;28;20164;-74
2023/08/31 07:24:21;;;;;;;7.63;3.47;;;14.00;1.00;;;;;;5036331;28;20430;-66
2023/08/31 07:26:47;;;;;;;9.63;4.70;;;14.00;1.00;;;;;;5035528;28;20410;-72
2023/08/31 07:29:12;;;;;;;3.30;3.00;;;14.10;1.00;;;;;;5036134;28;20429;-72
2023/08/31 07:31:38;;;;;;;3.33;2.93;;;14.10;1.00;;;;;;5036304;28;20421;-66
2023/08/31 07:34:04;;;;;;;6.60;2.87;;;14.10;1.00;;;;;;5036095;28;20809;-75
2023/08/31 07:36:30;;;;;;;7.10;2.67;;;14.10;1.00;;;;;;5035328;28;20266;-76
2023/08/31 07:38:56;;;;;;;4.37;2.90;;;14.20;1.00;;;;;;5036141;28;20576;-75
2023/08/31 07:41:22;;;;;;;2.43;2.23;;;14.30;1.00;;;;;;5034779;28;20406;-65
2023/08/31 07:43:49;;;;;;;3.57;2.67;;;14.40;1.00;;;;;;5035183;28;20179;-66
2023/08/31 07:46:15;;;;;;;3.73;2.70;;;14.60;1.00;;;;;;5053547;28;20511;-72
2023/08/31 07:48:42;;;;;;;5.10;2.73;;;14.60;1.00;;;;;;5043765;28;20450;-66
2023/08/31 07:51:08;;;;;;;2.53;2.13;;;14.60;99.90;;;;;;5034145;28;20954;-74
2023/08/31 07:53:33;;;;;;;3.10;2.90;;;14.70;99.90;;;;;;5035914;28;20429;-74
2023/08/31 07:55:59;;;;;;;3.77;2.50;;;14.70;99.90;;;;;;5034846;28;20213;-73
2023/08/31 07:58:26;;;;;;;2.50;2.30;;;14.70;99.90;;;;;;5050113;28;20210;-74
2023/08/31 08:00:55;;;;;;;2.93;2.57;;;14.80;99.90;;;;;;5055703;28;20217;-75
2023/08/31 08:03:25;;;;;;;3.47;2.00;;;14.90;99.90;;;;;;5055476;28;20910;-75
2023/08/31 08:05:51;;;;;;;8.80;3.30;;;15.00;99.90;;;;;;5043078;28;20942;-64
2023/08/31 08:08:16;;;;;;;2.50;2.30;;;15.10;99.90;;;;;;5035262;28;20509;-70
2023/08/31 08:10:43;;;;;;;4.90;2.10;;;15.10;99.90;;;;;;5035599;28;20258;-74
2023/08/31 08:13:09;;;;;;;3.80;2.70;;;15.20;99.90;;;;;;5036320;28;20274;-68
2023/08/31 08:15:35;;;;;;;2.43;2.23;;;15.30;99.90;;;;;;5036403;28;20497;-65
2023/08/31 08:18:00;;;;;;;4.80;2.00;;;15.40;99.90;;;;;;5055354;28;20468;-73
2023/08/31 08:20:28;;;;;;;3.90;2.70;;;15.40;99.90;;;;;;5048249;28;20209;-67
2023/08/31 08:22:54;;;;;;;6.50;2.27;;;15.50;99.90;;;;;;5053961;28;20536;-75
2023/08/31 08:25:20;;;;;;;6.73;1.80;;;15.60;99.90;;;;;;5054293;28;20413;-75
2023/08/31 08:27:47;;;;;;;1.87;1.63;;;15.70;99.90;;;;;;5053553;28;20441;-67
2023/08/31 08:30:13;;;;;;;8.73;2.43;;;15.70;99.90;;;;;;5055172;28;20501;-75
2023/08/31 08:32:39;;;;;;;2.60;1.60;;;15.70;99.90;;;;;;5055074;28;20406;-75
2023/08/31 08:35:05;;;;;;;2.53;1.80;;;15.70;99.90;;;;;;5045161;28;20938;-65
2023/08/31 08:37:34;;;;;;;2.50;1.50;;;15.90;99.90;;;;;;5043355;28;20187;-69
2023/08/31 08:40:01;;;;;;;1.83;1.47;;;15.90;99.90;;;;;;5043087;28;20453;-67
2023/08/31 08:42:30;;;;;;;2.83;1.40;;;16.10;99.90;;;;;;5034935;28;20436;-75
2023/08/31 08:44:57;;;;;;;1.93;1.30;;;16.20;99.90;;;;;;5034119;28;20780;-66
2023/08/31 08:47:24;;;;;;;8.93;1.90;;;16.30;95.50;;;;;;5036534;28;20458;-74
2023/08/31 08:49:50;;;;;;;1.77;1.67;;;16.40;84.30;;;;;;5037875;28;20441;-76
2023/08/31 08:52:16;;;;;;;5.93;1.80;;;16.50;74.00;;;;;;5054619;28;20486;-75
2023/08/31 08:54:42;;;;;;;6.20;1.37;;;16.70;58.50;;;;;;5054531;28;21021;-72
2023/08/31 08:57:07;;;;;;;3.00;1.50;;;16.80;38.60;;;;;;5052761;28;20461;-75
2023/08/31 08:59:34;;;;;;;3.70;1.60;;;16.80;15.70;;;;;;5053224;28;20444;-76
2023/08/31 09:01:59;;;;;;;2.37;1.60;;;17.00;13.20;;;;;;5053132;28;20175;-69
2023/08/31 09:04:25;;;;;;;7.30;1.60;;;17.20;7.10;;;;;;5042112;28;20488;-76
2023/08/31 09:06:51;;;;;;;5.37;1.30;;;17.30;1.00;;;;;;5038054;28;20190;-67
2023/08/31 09:09:17;;;;;;;2.00;1.80;;;17.50;1.00;;;;;;5033072;28;20207;-70
2023/08/31 09:11:43;;;;;;;1.87;1.43;;;17.60;1.00;;;;;;5034415;28;20792;-68
2023/08/31 09:14:16;;;;;;;2.03;1.13;;;17.80;1.00;;;;;;5034340;28;20171;-77
2023/08/31 09:16:51;;;;;;;1.67;1.57;;;17.80;1.00;;;;;;5040545;28;20491;-68
2023/08/31 09:19:26;;;;;;;3.37;1.60;;;17.70;1.00;;;;;;5048111;28;20759;-75
2023/08/31 09:21:56;;;;;;;2.40;2.20;;;17.70;1.00;;;;;;5052231;28;20929;-73
2023/08/31 09:24:23;;;;;;;2.23;1.60;;;17.90;1.00;;;;;;5054153;28;20894;-75
2023/08/31 09:26:55;;;;;;;3.30;1.70;;;18.10;1.00;;;;;;5053153;28;20485;-66
2023/08/31 09:29:20;;;;;;;1.70;1.60;;;18.50;1.00;;;;;;5051982;28;20454;-76
2023/08/31 09:31:47;;;;;;;2.83;1.40;;;18.70;1.00;;;;;;5054025;28;20455;-65
2023/08/31 09:34:17;;;;;;;2.47;1.40;;;18.90;1.00;;;;;;5040390;28;20576;-76
2023/08/31 09:36:43;;;;;;;4.03;1.50;;;19.30;1.00;;;;;;5032943;28;20421;-66
2023/08/31 09:39:10;;;;;;;3.03;1.60;;;19.80;1.00;;;;;;5033889;28;20487;-77
2023/08/31 09:41:51;;;;;;;2.50;1.40;;;20.20;1.00;;;;;;5033362;28;20401;-66
2023/08/31 09:44:19;;;;;;;1.90;1.13;;;20.20;1.00;;;;;;5049885;28;20520;-65
2023/08/31 09:46:45;;;;;;;2.83;1.73;;;19.80;1.00;;;;;;5052807;28;20480;-72
2023/08/31 09:49:14;;;;;;;1.73;1.40;;;19.50;1.00;;;;;;5051953;28;20461;-67
2023/08/31 09:51:44;;;;;;;2.03;1.40;;;19.50;1.00;;;;;;5045159;28;20454;-66
2023/08/31 09:54:13;;;;;;;1.90;1.17;;;19.50;1.00;;;;;;5033140;28;20441;-75
2023/08/31 09:56:43;;;;;;;4.93;1.90;;;19.70;1.00;;;;;;5032736;28;20438;-76
2023/08/31 09:59:10;;;;;;;3.83;1.50;;;19.80;1.00;;;;;;5032041;28;20506;-66
2023/08/31 10:01:36;;;;;;;8.43;1.20;;;20.00;1.00;;;;;;5032184;28;20741;-65
2023/08/31 10:04:03;;;;;;;1.30;1.20;;;20.20;1.00;;;;;;5032830;28;20437;-75
2023/08/31 10:06:31;;;;;;;6.90;1.30;;;19.90;1.00;;;;;;5032101;28;20454;-76
2023/08/31 10:08:56;;;;;;;2.07;1.37;;;19.90;1.00;;;;;;5033370;28;20497;-73
2023/08/31 10:11:25;;;;;;;3.87;1.33;;;19.40;1.00;;;;;;5033483;28;20538;-75
2023/08/31 10:13:53;;;;;;;2.27;1.57;;;19.00;1.00;;;;;;5032479;28;20188;-67
2023/08/31 10:16:21;;;;;;;3.03;1.53;;;19.10;1.00;;;;;;5030892;28;20458;-66
2023/08/31 10:18:48;;;;;;;2.23;1.50;;;19.30;1.00;;;;;;5031956;28;20453;-75
2023/08/31 10:21:17;;;;;;;7.57;1.63;;;19.40;1.00;;;;;;5033145;28;20403;-73
2023/08/31 10:23:50;;;;;;;2.70;1.40;;;19.90;1.00;;;;;;5033357;28;20826;-64
2023/08/31 10:26:30;;;;;;;1.43;1.20;;;20.50;1.00;;;;;;5032269;28;20409;-74
2023/08/31 10:28:57;;;;;;;2.47;1.27;;;21.20;1.00;;;;;;5049702;28;20900;-75
2023/08/31 10:31:23;;;;;;;1.60;1.40;;;21.60;1.00;;;;;;5052715;28;20452;-74
2023/08/31 10:33:57;;;;;;;3.90;1.77;;;21.50;1.00;;;;;;5041912;28;20473;-66
2023/08/31 10:36:38;;;;;;;1.83;1.50;;;20.60;1.00;;;;;;5031531;28;20477;-66
2023/08/31 10:39:22;;;;;;;2.33;1.17;;;19.80;1.00;;;;;;5032953;28;20437;-72
2023/08/31 10:41:55;;;;;;;2.70;1.27;;;19.60;1.00;;;;;;5033142;28;20460;-73
2023/08/31 10:44:26;;;;;;;2.70;1.53;;;19.90;1.00;;;;;;5032818;28;20399;-73
2023/08/31 10:46:53;;;;;;;5.03;1.50;;;19.60;1.00;;;;;;5031505;28;20437;-74
2023/08/31 10:49:23;;;;;;;1.30;1.20;;;19.60;1.00;;;;;;5050336;28;20870;-75
2023/08/31 10:52:15;;;;;;;1.77;1.20;;;20.10;1.00;;;;;;5052801;28;20433;-66
2023/08/31 10:54:41;;;;;;;2.50;1.53;;;20.70;1.00;;;;;;5052583;28;20460;-65
2023/08/31 10:57:07;;;;;;;2.17;1.50;;;21.40;1.00;;;;;;5037733;28;20437;-77
2023/08/31 10:59:45;;;;;;;2.43;1.57;;;21.80;1.00;;;;;;5032568;28;20394;-68
2023/08/31 11:02:41;;;;;;;1.40;1.30;;;21.90;1.00;;;;;;5031399;28;20683;-73
2023/08/31 11:05:07;;;;;;;7.83;1.53;;;22.00;1.00;;;;;;5032000;28;20409;-70
2023/08/31 11:07:36;;;;;;;1.87;1.37;;;22.50;1.00;;;;;;5032704;28;20516;-65
2023/08/31 11:10:19;;;;;;;1.37;1.00;;;23.00;1.00;;;;;;5032213;28;20178;-75
2023/08/31 11:12:50;;;;;;;1.70;1.30;;;22.70;99.90;;;;;;5036182;28;21002;-70
2023/08/31 11:15:21;;;;;;;2.07;1.13;;;22.50;99.90;;;;;;5051616;28;20460;-73
2023/08/31 11:17:51;;;;;;;1.87;1.10;;;22.70;99.90;;;;;;5047436;28;20458;-65
2023/08/31 11:20:22;;;;;;;4.50;1.20;;;23.00;99.90;;;;;;5038623;28;20429;-65
2023/08/31 11:22:50;;;;;;;1.37;1.07;;;23.40;99.90;;;;;;5052435;28;20397;-66
2023/08/31 11:25:17;;;;;;;1.30;1.03;;;23.20;99.90;;;;;;5050179;28;20488;-73
2023/08/31 11:27:56;;;;;;;2.23;1.00;;;23.20;99.90;;;;;;5052255;28;20433;-64
2023/08/31 11:30:22;;;;;;;1.97;1.07;;;23.60;99.90;;;;;;5047425;28;20524;-64
2023/08/31 11:32:51;;;;;;;1.47;1.00;;;23.90;99.90;;;;;;5034340;28;20493;-69
2023/08/31 11:35:18;;;;;;;1.50;0.90;;;24.30;99.90;;;;;;5054028;28;20286;-74
2023/08/31 11:37:45;;;;;;;2.30;1.10;;;24.50;99.90;;;;;;5054954;28;20843;-66
2023/08/31 11:40:14;;;;;;;2.23;0.93;;;24.40;99.90;;;;;;5051054;28;20445;-70
2023/08/31 11:42:40;;;;;;;1.40;0.80;;;24.40;99.90;;;;;;5036090;28;20434;-76
2023/08/31 11:45:07;;;;;;;1.00;0.70;;;23.80;99.90;;;;;;5033488;28;20850;-70
2023/08/31 11:47:33;;;;;;;2.27;1.03;;;23.40;99.90;;;;;;5036796;28;20452;-71
2023/08/31 11:50:01;;;;;;;1.50;1.07;;;23.50;99.90;;;;;;5035871;28;20458;-69
2023/08/31 11:52:27;;;;;;;1.60;0.87;;;23.60;99.90;;;;;;5035702;28;20398;-70
2023/08/31 11:54:54;;;;;;;2.80;0.97;;;23.70;99.90;;;;;;5035649;28;20461;-76
2023/08/31 11:57:25;;;;;;;1.40;0.80;;;24.10;99.90;;;;;;5035331;28;20695;-76
2023/08/31 11:59:52;;;;;;;1.20;0.80;;;24.30;99.90;;;;;;5039467;28;20426;-77
2023/08/31 12:02:19;;;;;;;1.83;0.90;;;24.40;99.90;;;;;;5037732;28;20495;-68
2023/08/31 12:04:46;;;;;;;2.07;1.00;;;24.70;99.90;;;;;;5055018;28;20472;-76
2023/08/31 12:07:21;;;;;;;3.70;0.70;;;24.60;99.90;;;;;;5053242;28;20848;-73
2023/08/31 12:09:48;;;;;;;1.43;0.87;;;24.50;99.90;;;;;;5054453;28;20441;-68
2023/08/31 12:12:17;;;;;;;1.20;0.70;;;24.60;99.90;;;;;;5054299;28;20484;-75
2023/08/31 12:14:43;;;;;;;1.40;0.70;;;24.70;99.90;;;;;;5054063;28;21001;-77
2023/08/31 12:17:09;;;;;;;2.63;1.00;;;24.40;99.90;;;;;;5053804;28;20476;-75
2023/08/31 12:19:39;;;;;;;2.57;1.00;;;23.80;99.90;;;;;;5054574;28;20505;-78
2023/08/31 12:22:12;;;;;;;4.20;1.33;;;23.10;99.90;;;;;;5054912;28;20285;-72
2023/08/31 12:24:40;;;;;;;1.60;1.10;;;22.70;99.90;;;;;;5055098;28;20921;-76
2023/08/31 12:27:07;;;;;;;2.70;1.10;;;22.40;99.90;;;;;;5043460;28;20442;-77
2023/08/31 12:29:32;;;;;;;2.97;1.10;;;21.90;99.90;;;;;;5034606;28;20441;-68
2023/08/31 12:31:58;;;;;;;2.70;1.27;;;21.30;99.90;;;;;;5038731;28;20437;-71
2023/08/31 12:34:24;;;;;;;2.03;1.03;;;20.80;99.90;;;;;;5055155;28;20167;-67
2023/08/31 12:36:50;;;;;;;2.57;1.40;;;20.40;99.90;;;;;;5042673;28;20911;-74
2023/08/31 12:39:15;;;;;;;1.53;1.10;;;20.20;99.90;;;;;;5034665;28;20190;-75
2023/08/31 12:41:41;;;;;;;2.07;1.00;;;19.90;99.90;;;;;;5037767;28;20664;-68
2023/08/31 12:44:07;;;;;;;0.90;0.80;;;19.80;99.90;;;;;;5033006;28;20187;-75
2023/08/31 12:46:34;;;;;;;3.77;1.10;;;19.80;99.90;;;;;;5034090;28;20176;-76
2023/08/31 12:49:03;;;;;;;1.60;1.00;;;19.80;99.90;;;;;;5052555;28;20457;-71